sensor_id;sensor_type;location;lat;lon;timestamp;P1;durP1;ratioP1;P2;durP2;ratioP2
71600;SDS011;59446;52.192;4.628;2022-09-30T00:01:25;1.30;;;0.90;;
71600;SDS011;59446;52.192;4.628;2022-09-30T00:03:54;2.38;;;0.90;;
71600;SDS011;59446;52.192;4.628;2022-09-30T00:06:21;2.17;;;0.90;;
71600;SDS011;59446;52.192;4.628;2022-09-30T00:08:48;3.50;;;1.03;;
71600;SDS011;59446;52.192;4.628;2022-09-30T00:11:17;1.90;;;1.10;;
71600;SDS011;59446;52.192;4.628;2022-09-30T00:13:45;1.88;;;1.00;;
71600;SDS011;59446;52.192;4.628;2022-09-30T00:16:12;2.22;;;0.90;;
71600;SDS011;59446;52.192;4.628;2022-09-30T00:18:40;2.05;;;0.80;;
71600;SDS011;59446;52.192;4.628;2022-09-30T00:21:06;2.20;;;1.00;;
71600;SDS011;59446;52.192;4.628;2022-09-30T00:23:32;2.35;;;0.90;;
71600;SDS011;59446;52.192;4.628;2022-09-30T00:26:02;1.93;;;0.80;;
71600;SDS011;59446;52.192;4.628;2022-09-30T00:28:30;1.65;;;1.00;;
71600;SDS011;59446;52.192;4.628;2022-09-30T00:31:03;1.70;;;1.00;;
71600;SDS011;59446;52.192;4.628;2022-09-30T00:33:31;1.47;;;0.70;;
71600;SDS011;59446;52.192;4.628;2022-09-30T00:36:00;1.90;;;0.73;;
71600;SDS011;59446;52.192;4.628;2022-09-30T00:38:26;1.58;;;0.90;;
71600;SDS011;59446;52.192;4.628;2022-09-30T00:40:51;1.97;;;0.70;;
71600;SDS011;59446;52.192;4.628;2022-09-30T00:46:05;1.55;;;0.80;;
71600;SDS011;59446;52.192;4.628;2022-09-30T00:48:40;1.67;;;0.73;;
71600;SDS011;59446;52.192;4.628;2022-09-30T00:51:06;3.00;;;0.90;;
71600;SDS011;59446;52.192;4.628;2022-09-30T00:53:40;1.25;;;0.70;;
71600;SDS011;59446;52.192;4.628;2022-09-30T00:56:16;1.52;;;0.82;;
71600;SDS011;59446;52.192;4.628;2022-09-30T00:58:50;1.53;;;0.80;;
71600;SDS011;59446;52.192;4.628;2022-09-30T01:01:19;2.10;;;1.00;;
71600;SDS011;59446;52.192;4.628;2022-09-30T01:04:05;1.67;;;0.85;;
71600;SDS011;59446;52.192;4.628;2022-09-30T01:06:41;1.80;;;0.83;;
71600;SDS011;59446;52.192;4.628;2022-09-30T01:09:08;1.58;;;0.70;;
71600;SDS011;59446;52.192;4.628;2022-09-30T01:11:34;1.13;;;0.85;;
71600;SDS011;59446;52.192;4.628;2022-09-30T01:14:01;1.77;;;0.90;;
71600;SDS011;59446;52.192;4.628;2022-09-30T01:16:32;1.88;;;1.00;;
71600;SDS011;59446;52.192;4.628;2022-09-30T01:19:28;1.30;;;0.70;;
71600;SDS011;59446;52.192;4.628;2022-09-30T01:31:00;0.80;;;0.60;;
71600;SDS011;59446;52.192;4.628;2022-09-30T01:33:56;1.80;;;0.68;;
71600;SDS011;59446;52.192;4.628;2022-09-30T01:36:47;1.42;;;0.70;;
71600;SDS011;59446;52.192;4.628;2022-09-30T01:45:16;2.10;;;0.73;;
71600;SDS011;59446;52.192;4.628;2022-09-30T01:53:53;1.52;;;0.80;;
71600;SDS011;59446;52.192;4.628;2022-09-30T01:56:36;4.45;;;0.95;;
71600;SDS011;59446;52.192;4.628;2022-09-30T01:59:17;1.90;;;0.80;;
71600;SDS011;59446;52.192;4.628;2022-09-30T02:01:54;2.78;;;1.08;;
71600;SDS011;59446;52.192;4.628;2022-09-30T02:04:25;1.48;;;0.85;;
71600;SDS011;59446;52.192;4.628;2022-09-30T02:06:56;1.00;;;0.70;;
71600;SDS011;59446;52.192;4.628;2022-09-30T02:09:47;1.80;;;0.70;;
71600;SDS011;59446;52.192;4.628;2022-09-30T02:12:18;1.40;;;0.80;;
71600;SDS011;59446;52.192;4.628;2022-09-30T02:14:50;1.27;;;0.73;;
71600;SDS011;59446;52.192;4.628;2022-09-30T02:17:24;1.50;;;0.73;;
71600;SDS011;59446;52.192;4.628;2022-09-30T02:19:59;0.90;;;0.50;;
71600;SDS011;59446;52.192;4.628;2022-09-30T02:22:30;1.25;;;0.68;;
71600;SDS011;59446;52.192;4.628;2022-09-30T02:25:11;1.50;;;0.77;;
71600;SDS011;59446;52.192;4.628;2022-09-30T02:27:45;1.70;;;0.70;;
71600;SDS011;59446;52.192;4.628;2022-09-30T02:30:16;1.40;;;0.68;;
71600;SDS011;59446;52.192;4.628;2022-09-30T02:32:44;1.20;;;0.70;;
71600;SDS011;59446;52.192;4.628;2022-09-30T02:35:25;1.23;;;0.60;;
71600;SDS011;59446;52.192;4.628;2022-09-30T02:37:59;1.23;;;0.70;;
71600;SDS011;59446;52.192;4.628;2022-09-30T02:40:34;1.25;;;0.70;;
71600;SDS011;59446;52.192;4.628;2022-09-30T02:43:05;1.77;;;0.80;;
71600;SDS011;59446;52.192;4.628;2022-09-30T02:45:41;1.58;;;0.80;;
71600;SDS011;59446;52.192;4.628;2022-09-30T02:48:23;2.03;;;0.80;;
71600;SDS011;59446;52.192;4.628;2022-09-30T02:53:30;1.27;;;0.60;;
71600;SDS011;59446;52.192;4.628;2022-09-30T02:58:35;1.25;;;0.70;;
71600;SDS011;59446;52.192;4.628;2022-09-30T03:01:04;1.30;;;0.67;;
71600;SDS011;59446;52.192;4.628;2022-09-30T03:03:36;1.17;;;0.70;;
71600;SDS011;59446;52.192;4.628;2022-09-30T03:06:05;1.48;;;0.80;;
71600;SDS011;59446;52.192;4.628;2022-09-30T03:08:31;1.27;;;0.70;;
71600;SDS011;59446;52.192;4.628;2022-09-30T03:10:56;0.70;;;0.60;;
71600;SDS011;59446;52.192;4.628;2022-09-30T03:13:41;1.47;;;0.60;;
71600;SDS011;59446;52.192;4.628;2022-09-30T03:36:00;1.27;;;0.65;;
71600;SDS011;59446;52.192;4.628;2022-09-30T03:41:14;1.37;;;0.70;;
71600;SDS011;59446;52.192;4.628;2022-09-30T03:46:19;1.42;;;0.70;;
71600;SDS011;59446;52.192;4.628;2022-09-30T03:48:49;1.17;;;0.60;;
71600;SDS011;59446;52.192;4.628;2022-09-30T03:51:19;1.23;;;0.63;;
71600;SDS011;59446;52.192;4.628;2022-09-30T03:53:44;1.80;;;0.70;;
71600;SDS011;59446;52.192;4.628;2022-09-30T03:56:11;1.00;;;0.70;;
71600;SDS011;59446;52.192;4.628;2022-09-30T03:58:38;1.00;;;0.60;;
71600;SDS011;59446;52.192;4.628;2022-09-30T04:01:07;1.60;;;0.60;;
71600;SDS011;59446;52.192;4.628;2022-09-30T04:03:35;1.35;;;0.70;;
71600;SDS011;59446;52.192;4.628;2022-09-30T04:06:01;1.07;;;0.60;;
71600;SDS011;59446;52.192;4.628;2022-09-30T04:08:27;0.87;;;0.50;;
71600;SDS011;59446;52.192;4.628;2022-09-30T04:10:52;1.20;;;0.80;;
71600;SDS011;59446;52.192;4.628;2022-09-30T04:13:17;1.77;;;0.73;;
71600;SDS011;59446;52.192;4.628;2022-09-30T04:15:43;1.10;;;0.80;;
71600;SDS011;59446;52.192;4.628;2022-09-30T04:18:08;1.37;;;0.67;;
71600;SDS011;59446;52.192;4.628;2022-09-30T04:20:34;1.80;;;0.90;;
71600;SDS011;59446;52.192;4.628;2022-09-30T04:23:00;2.07;;;0.80;;
71600;SDS011;59446;52.192;4.628;2022-09-30T04:25:26;1.13;;;0.70;;
71600;SDS011;59446;52.192;4.628;2022-09-30T04:27:52;1.10;;;0.60;;
71600;SDS011;59446;52.192;4.628;2022-09-30T04:30:18;1.98;;;0.70;;
71600;SDS011;59446;52.192;4.628;2022-09-30T04:32:44;0.73;;;0.50;;
71600;SDS011;59446;52.192;4.628;2022-09-30T04:35:10;0.90;;;0.70;;
71600;SDS011;59446;52.192;4.628;2022-09-30T04:37:40;1.08;;;0.80;;
71600;SDS011;59446;52.192;4.628;2022-09-30T04:40:09;0.70;;;0.50;;
71600;SDS011;59446;52.192;4.628;2022-09-30T04:42:36;1.30;;;0.68;;
71600;SDS011;59446;52.192;4.628;2022-09-30T04:45:06;0.95;;;0.60;;
71600;SDS011;59446;52.192;4.628;2022-09-30T04:47:41;1.57;;;0.90;;
71600;SDS011;59446;52.192;4.628;2022-09-30T04:50:08;1.77;;;0.65;;
71600;SDS011;59446;52.192;4.628;2022-09-30T04:52:33;1.10;;;0.60;;
71600;SDS011;59446;52.192;4.628;2022-09-30T04:54:59;1.60;;;0.70;;
71600;SDS011;59446;52.192;4.628;2022-09-30T04:57:24;1.90;;;0.80;;
71600;SDS011;59446;52.192;4.628;2022-09-30T04:59:50;1.13;;;0.70;;
71600;SDS011;59446;52.192;4.628;2022-09-30T05:02:16;0.70;;;0.60;;
71600;SDS011;59446;52.192;4.628;2022-09-30T05:04:41;1.47;;;0.80;;
71600;SDS011;59446;52.192;4.628;2022-09-30T05:07:07;1.50;;;0.70;;
71600;SDS011;59446;52.192;4.628;2022-09-30T05:09:35;1.45;;;0.80;;
71600;SDS011;59446;52.192;4.628;2022-09-30T05:12:01;2.37;;;0.80;;
71600;SDS011;59446;52.192;4.628;2022-09-30T05:14:27;2.58;;;0.70;;
71600;SDS011;59446;52.192;4.628;2022-09-30T05:16:53;2.03;;;0.70;;
71600;SDS011;59446;52.192;4.628;2022-09-30T05:19:19;1.97;;;0.73;;
71600;SDS011;59446;52.192;4.628;2022-09-30T05:21:44;1.20;;;0.70;;
71600;SDS011;59446;52.192;4.628;2022-09-30T05:24:10;1.33;;;0.70;;
71600;SDS011;59446;52.192;4.628;2022-09-30T05:26:36;1.47;;;0.77;;
71600;SDS011;59446;52.192;4.628;2022-09-30T05:29:01;1.30;;;0.60;;
71600;SDS011;59446;52.192;4.628;2022-09-30T05:31:27;0.73;;;0.63;;
71600;SDS011;59446;52.192;4.628;2022-09-30T05:33:52;1.63;;;0.70;;
71600;SDS011;59446;52.192;4.628;2022-09-30T05:36:19;0.85;;;0.63;;
71600;SDS011;59446;52.192;4.628;2022-09-30T05:38:45;1.65;;;0.70;;
71600;SDS011;59446;52.192;4.628;2022-09-30T05:41:11;1.77;;;0.80;;
71600;SDS011;59446;52.192;4.628;2022-09-30T05:43:38;1.17;;;0.60;;
71600;SDS011;59446;52.192;4.628;2022-09-30T05:46:05;1.20;;;0.60;;
71600;SDS011;59446;52.192;4.628;2022-09-30T05:48:30;3.45;;;0.70;;
71600;SDS011;59446;52.192;4.628;2022-09-30T05:50:56;0.93;;;0.60;;
71600;SDS011;59446;52.192;4.628;2022-09-30T05:53:25;1.52;;;0.70;;
71600;SDS011;59446;52.192;4.628;2022-09-30T05:55:50;1.33;;;0.70;;
71600;SDS011;59446;52.192;4.628;2022-09-30T05:58:16;0.85;;;0.65;;
71600;SDS011;59446;52.192;4.628;2022-09-30T06:00:42;2.08;;;1.00;;
71600;SDS011;59446;52.192;4.628;2022-09-30T06:03:09;1.77;;;0.70;;
71600;SDS011;59446;52.192;4.628;2022-09-30T06:05:34;1.33;;;0.80;;
71600;SDS011;59446;52.192;4.628;2022-09-30T06:08:00;0.80;;;0.50;;
71600;SDS011;59446;52.192;4.628;2022-09-30T06:10:27;0.95;;;0.60;;
71600;SDS011;59446;52.192;4.628;2022-09-30T06:12:53;1.53;;;0.73;;
71600;SDS011;59446;52.192;4.628;2022-09-30T06:15:18;1.35;;;0.80;;
71600;SDS011;59446;52.192;4.628;2022-09-30T06:17:43;1.00;;;0.63;;
71600;SDS011;59446;52.192;4.628;2022-09-30T06:20:11;2.67;;;0.80;;
71600;SDS011;59446;52.192;4.628;2022-09-30T06:22:36;3.38;;;0.80;;
71600;SDS011;59446;52.192;4.628;2022-09-30T06:25:05;1.73;;;0.77;;
71600;SDS011;59446;52.192;4.628;2022-09-30T06:27:34;1.73;;;0.90;;
71600;SDS011;59446;52.192;4.628;2022-09-30T06:30:03;1.35;;;0.80;;
71600;SDS011;59446;52.192;4.628;2022-09-30T06:32:31;2.35;;;1.00;;
71600;SDS011;59446;52.192;4.628;2022-09-30T06:34:56;1.73;;;0.90;;
71600;SDS011;59446;52.192;4.628;2022-09-30T06:37:22;1.50;;;0.77;;
71600;SDS011;59446;52.192;4.628;2022-09-30T06:39:48;1.40;;;0.87;;
71600;SDS011;59446;52.192;4.628;2022-09-30T06:42:15;3.60;;;1.05;;
71600;SDS011;59446;52.192;4.628;2022-09-30T06:44:40;2.90;;;1.27;;
71600;SDS011;59446;52.192;4.628;2022-09-30T06:47:06;2.80;;;1.07;;
71600;SDS011;59446;52.192;4.628;2022-09-30T06:49:32;2.27;;;0.87;;
71600;SDS011;59446;52.192;4.628;2022-09-30T06:51:58;2.30;;;1.17;;
71600;SDS011;59446;52.192;4.628;2022-09-30T06:54:24;1.45;;;0.82;;
71600;SDS011;59446;52.192;4.628;2022-09-30T06:56:52;1.65;;;0.80;;
71600;SDS011;59446;52.192;4.628;2022-09-30T06:59:17;1.67;;;0.80;;
71600;SDS011;59446;52.192;4.628;2022-09-30T07:01:43;1.87;;;0.97;;
71600;SDS011;59446;52.192;4.628;2022-09-30T07:04:11;1.95;;;0.90;;
71600;SDS011;59446;52.192;4.628;2022-09-30T07:06:37;1.02;;;0.60;;
71600;SDS011;59446;52.192;4.628;2022-09-30T07:09:06;2.27;;;1.07;;
71600;SDS011;59446;52.192;4.628;2022-09-30T07:11:34;1.70;;;0.90;;
71600;SDS011;59446;52.192;4.628;2022-09-30T07:14:01;1.88;;;0.98;;
71600;SDS011;59446;52.192;4.628;2022-09-30T07:16:28;2.03;;;0.90;;
71600;SDS011;59446;52.192;4.628;2022-09-30T07:18:55;1.48;;;0.80;;
71600;SDS011;59446;52.192;4.628;2022-09-30T07:21:20;1.90;;;0.90;;
71600;SDS011;59446;52.192;4.628;2022-09-30T07:23:46;1.80;;;0.80;;
71600;SDS011;59446;52.192;4.628;2022-09-30T07:26:12;2.13;;;1.00;;
71600;SDS011;59446;52.192;4.628;2022-09-30T07:28:39;8.30;;;2.97;;
71600;SDS011;59446;52.192;4.628;2022-09-30T07:31:12;8.40;;;2.40;;
71600;SDS011;59446;52.192;4.628;2022-09-30T07:33:41;6.75;;;2.60;;
71600;SDS011;59446;52.192;4.628;2022-09-30T07:36:07;6.82;;;2.00;;
71600;SDS011;59446;52.192;4.628;2022-09-30T07:38:38;4.57;;;1.67;;
71600;SDS011;59446;52.192;4.628;2022-09-30T07:41:07;3.97;;;1.67;;
71600;SDS011;59446;52.192;4.628;2022-09-30T07:43:37;3.97;;;1.65;;
71600;SDS011;59446;52.192;4.628;2022-09-30T07:46:11;4.90;;;1.50;;
71600;SDS011;59446;52.192;4.628;2022-09-30T07:48:51;4.63;;;1.70;;
71600;SDS011;59446;52.192;4.628;2022-09-30T07:51:25;3.70;;;1.35;;
71600;SDS011;59446;52.192;4.628;2022-09-30T07:53:57;2.67;;;1.10;;
71600;SDS011;59446;52.192;4.628;2022-09-30T07:56:25;3.73;;;1.30;;
71600;SDS011;59446;52.192;4.628;2022-09-30T07:58:55;10.10;;;3.47;;
71600;SDS011;59446;52.192;4.628;2022-09-30T08:01:22;11.55;;;3.60;;
71600;SDS011;59446;52.192;4.628;2022-09-30T08:03:51;9.20;;;2.90;;
71600;SDS011;59446;52.192;4.628;2022-09-30T08:06:18;8.63;;;2.40;;
71600;SDS011;59446;52.192;4.628;2022-09-30T08:08:45;6.65;;;2.65;;
71600;SDS011;59446;52.192;4.628;2022-09-30T08:11:11;5.90;;;2.17;;
71600;SDS011;59446;52.192;4.628;2022-09-30T08:13:37;7.20;;;3.10;;
71600;SDS011;59446;52.192;4.628;2022-09-30T08:16:03;19.93;;;6.57;;
71600;SDS011;59446;52.192;4.628;2022-09-30T08:18:29;12.63;;;4.55;;
71600;SDS011;59446;52.192;4.628;2022-09-30T08:20:55;13.43;;;4.45;;
71600;SDS011;59446;52.192;4.628;2022-09-30T08:23:20;9.63;;;3.50;;
71600;SDS011;59446;52.192;4.628;2022-09-30T08:25:46;12.73;;;4.18;;
71600;SDS011;59446;52.192;4.628;2022-09-30T08:28:12;9.33;;;3.37;;
71600;SDS011;59446;52.192;4.628;2022-09-30T08:30:38;9.77;;;3.92;;
71600;SDS011;59446;52.192;4.628;2022-09-30T08:33:04;14.13;;;3.00;;
71600;SDS011;59446;52.192;4.628;2022-09-30T08:35:30;9.07;;;2.65;;
71600;SDS011;59446;52.192;4.628;2022-09-30T08:37:55;7.07;;;2.77;;
71600;SDS011;59446;52.192;4.628;2022-09-30T08:40:26;6.93;;;2.03;;
71600;SDS011;59446;52.192;4.628;2022-09-30T08:45:49;6.25;;;2.13;;
71600;SDS011;59446;52.192;4.628;2022-09-30T08:51:30;5.97;;;2.15;;
71600;SDS011;59446;52.192;4.628;2022-09-30T08:54:02;6.65;;;2.00;;
71600;SDS011;59446;52.192;4.628;2022-09-30T08:56:31;6.13;;;2.13;;
71600;SDS011;59446;52.192;4.628;2022-09-30T08:59:05;6.43;;;1.80;;
71600;SDS011;59446;52.192;4.628;2022-09-30T09:01:39;3.40;;;1.52;;
71600;SDS011;59446;52.192;4.628;2022-09-30T09:04:09;5.35;;;1.83;;
71600;SDS011;59446;52.192;4.628;2022-09-30T09:09:24;4.07;;;2.03;;
71600;SDS011;59446;52.192;4.628;2022-09-30T09:12:09;4.50;;;1.95;;
71600;SDS011;59446;52.192;4.628;2022-09-30T09:20:31;5.70;;;1.63;;
71600;SDS011;59446;52.192;4.628;2022-09-30T09:23:01;6.40;;;1.55;;
71600;SDS011;59446;52.192;4.628;2022-09-30T09:25:27;2.78;;;1.42;;
71600;SDS011;59446;52.192;4.628;2022-09-30T09:27:54;3.80;;;1.53;;
71600;SDS011;59446;52.192;4.628;2022-09-30T09:30:22;5.22;;;1.40;;
71600;SDS011;59446;52.192;4.628;2022-09-30T09:32:50;2.95;;;1.20;;
71600;SDS011;59446;52.192;4.628;2022-09-30T09:41:07;4.07;;;1.50;;
71600;SDS011;59446;52.192;4.628;2022-09-30T09:46:47;2.97;;;1.10;;
71600;SDS011;59446;52.192;4.628;2022-09-30T09:49:29;6.45;;;1.38;;
71600;SDS011;59446;52.192;4.628;2022-09-30T09:54:38;4.00;;;1.40;;
71600;SDS011;59446;52.192;4.628;2022-09-30T09:57:05;4.80;;;1.25;;
71600;SDS011;59446;52.192;4.628;2022-09-30T09:59:35;4.30;;;1.27;;
71600;SDS011;59446;52.192;4.628;2022-09-30T10:02:01;2.63;;;1.37;;
71600;SDS011;59446;52.192;4.628;2022-09-30T10:04:48;2.03;;;1.10;;
71600;SDS011;59446;52.192;4.628;2022-09-30T10:07:22;3.80;;;1.00;;
71600;SDS011;59446;52.192;4.628;2022-09-30T10:09:47;5.27;;;1.40;;
71600;SDS011;59446;52.192;4.628;2022-09-30T10:12:29;2.72;;;1.08;;
71600;SDS011;59446;52.192;4.628;2022-09-30T10:14:58;2.30;;;1.03;;
71600;SDS011;59446;52.192;4.628;2022-09-30T10:17:34;2.83;;;1.10;;
71600;SDS011;59446;52.192;4.628;2022-09-30T10:20:16;2.40;;;1.48;;
71600;SDS011;59446;52.192;4.628;2022-09-30T10:22:47;3.20;;;1.00;;
71600;SDS011;59446;52.192;4.628;2022-09-30T10:25:17;2.95;;;1.08;;
71600;SDS011;59446;52.192;4.628;2022-09-30T10:27:58;2.17;;;1.10;;
71600;SDS011;59446;52.192;4.628;2022-09-30T10:30:44;3.22;;;1.20;;
71600;SDS011;59446;52.192;4.628;2022-09-30T10:33:35;3.08;;;1.20;;
71600;SDS011;59446;52.192;4.628;2022-09-30T10:36:05;2.50;;;1.40;;
71600;SDS011;59446;52.192;4.628;2022-09-30T10:38:35;2.92;;;1.13;;
71600;SDS011;59446;52.192;4.628;2022-09-30T10:41:09;2.20;;;0.90;;
71600;SDS011;59446;52.192;4.628;2022-09-30T10:43:43;4.13;;;1.07;;
71600;SDS011;59446;52.192;4.628;2022-09-30T10:46:22;3.15;;;1.02;;
71600;SDS011;59446;52.192;4.628;2022-09-30T10:48:50;1.27;;;0.87;;
71600;SDS011;59446;52.192;4.628;2022-09-30T10:51:21;3.47;;;1.23;;
71600;SDS011;59446;52.192;4.628;2022-09-30T10:53:48;1.65;;;1.17;;
71600;SDS011;59446;52.192;4.628;2022-09-30T10:56:24;3.03;;;0.83;;
71600;SDS011;59446;52.192;4.628;2022-09-30T10:59:13;4.22;;;1.00;;
71600;SDS011;59446;52.192;4.628;2022-09-30T11:01:52;2.47;;;0.93;;
71600;SDS011;59446;52.192;4.628;2022-09-30T11:05:23;3.53;;;1.02;;
71600;SDS011;59446;52.192;4.628;2022-09-30T11:10:06;9.00;;;1.20;;
71600;SDS011;59446;52.192;4.628;2022-09-30T11:12:45;3.47;;;1.23;;
71600;SDS011;59446;52.192;4.628;2022-09-30T11:15:31;2.85;;;1.05;;
71600;SDS011;59446;52.192;4.628;2022-09-30T11:18:04;6.65;;;1.67;;
71600;SDS011;59446;52.192;4.628;2022-09-30T11:20:46;6.53;;;1.33;;
71600;SDS011;59446;52.192;4.628;2022-09-30T11:26:11;34.13;;;11.43;;
71600;SDS011;59446;52.192;4.628;2022-09-30T11:29:05;38.70;;;14.93;;
71600;SDS011;59446;52.192;4.628;2022-09-30T11:32:02;43.50;;;13.55;;
71600;SDS011;59446;52.192;4.628;2022-09-30T11:37:31;61.20;;;19.80;;
71600;SDS011;59446;52.192;4.628;2022-09-30T11:40:23;56.33;;;17.67;;
71600;SDS011;59446;52.192;4.628;2022-09-30T11:43:01;61.00;;;20.48;;
71600;SDS011;59446;52.192;4.628;2022-09-30T11:46:03;58.13;;;19.98;;
71600;SDS011;59446;52.192;4.628;2022-09-30T11:49:05;59.83;;;19.33;;
71600;SDS011;59446;52.192;4.628;2022-09-30T11:51:48;64.25;;;20.77;;
71600;SDS011;59446;52.192;4.628;2022-09-30T11:59:39;100.78;;;32.13;;
71600;SDS011;59446;52.192;4.628;2022-09-30T12:02:18;78.88;;;26.30;;
71600;SDS011;59446;52.192;4.628;2022-09-30T12:04:51;67.27;;;22.63;;
71600;SDS011;59446;52.192;4.628;2022-09-30T12:07:26;80.75;;;28.15;;
71600;SDS011;59446;52.192;4.628;2022-09-30T12:10:07;89.40;;;29.50;;
71600;SDS011;59446;52.192;4.628;2022-09-30T12:12:42;73.68;;;23.75;;
71600;SDS011;59446;52.192;4.628;2022-09-30T12:15:11;62.67;;;23.27;;
71600;SDS011;59446;52.192;4.628;2022-09-30T12:17:48;72.43;;;22.90;;
71600;SDS011;59446;52.192;4.628;2022-09-30T12:20:25;58.08;;;19.75;;
71600;SDS011;59446;52.192;4.628;2022-09-30T12:23:13;57.73;;;19.67;;
71600;SDS011;59446;52.192;4.628;2022-09-30T12:25:48;53.22;;;18.63;;
71600;SDS011;59446;52.192;4.628;2022-09-30T12:28:29;48.13;;;17.63;;
71600;SDS011;59446;52.192;4.628;2022-09-30T12:31:24;46.70;;;15.70;;
71600;SDS011;59446;52.192;4.628;2022-09-30T12:37:03;42.45;;;13.63;;
71600;SDS011;59446;52.192;4.628;2022-09-30T12:48:07;36.72;;;11.57;;
71600;SDS011;59446;52.192;4.628;2022-09-30T12:50:43;32.23;;;10.77;;
71600;SDS011;59446;52.192;4.628;2022-09-30T12:53:31;26.42;;;9.52;;
71600;SDS011;59446;52.192;4.628;2022-09-30T12:58:39;30.77;;;9.70;;
71600;SDS011;59446;52.192;4.628;2022-09-30T13:01:13;32.10;;;9.32;;
71600;SDS011;59446;52.192;4.628;2022-09-30T13:06:24;28.67;;;10.50;;
71600;SDS011;59446;52.192;4.628;2022-09-30T13:11:37;29.80;;;10.30;;
71600;SDS011;59446;52.192;4.628;2022-09-30T13:19:48;41.57;;;13.63;;
71600;SDS011;59446;52.192;4.628;2022-09-30T13:33:26;54.95;;;15.20;;
71600;SDS011;59446;52.192;4.628;2022-09-30T13:35:51;50.10;;;15.90;;
71600;SDS011;59446;52.192;4.628;2022-09-30T13:38:17;53.47;;;17.70;;
71600;SDS011;59446;52.192;4.628;2022-09-30T13:43:24;50.20;;;15.97;;
71600;SDS011;59446;52.192;4.628;2022-09-30T13:46:21;53.03;;;15.82;;
71600;SDS011;59446;52.192;4.628;2022-09-30T13:48:56;52.90;;;17.10;;
71600;SDS011;59446;52.192;4.628;2022-09-30T13:51:24;63.85;;;22.55;;
71600;SDS011;59446;52.192;4.628;2022-09-30T13:53:56;81.30;;;23.17;;
71600;SDS011;59446;52.192;4.628;2022-09-30T13:56:29;85.93;;;27.92;;
71600;SDS011;59446;52.192;4.628;2022-09-30T14:04:31;73.63;;;24.02;;
71600;SDS011;59446;52.192;4.628;2022-09-30T14:24:08;62.53;;;19.77;;
71600;SDS011;59446;52.192;4.628;2022-09-30T14:32:24;52.58;;;19.33;;
71600;SDS011;59446;52.192;4.628;2022-09-30T14:34:56;55.58;;;17.65;;
71600;SDS011;59446;52.192;4.628;2022-09-30T14:39:54;60.40;;;19.70;;
71600;SDS011;59446;52.192;4.628;2022-09-30T14:42:24;48.00;;;17.02;;
71600;SDS011;59446;52.192;4.628;2022-09-30T14:44:55;53.33;;;17.17;;
71600;SDS011;59446;52.192;4.628;2022-09-30T14:47:29;44.50;;;16.83;;
71600;SDS011;59446;52.192;4.628;2022-09-30T14:50:03;56.65;;;19.48;;
71600;SDS011;59446;52.192;4.628;2022-09-30T14:52:42;59.87;;;22.37;;
71600;SDS011;59446;52.192;4.628;2022-09-30T14:58:16;70.00;;;24.38;;
71600;SDS011;59446;52.192;4.628;2022-09-30T15:00:43;68.25;;;21.23;;
71600;SDS011;59446;52.192;4.628;2022-09-30T15:03:12;69.20;;;22.50;;
71600;SDS011;59446;52.192;4.628;2022-09-30T15:05:38;71.93;;;24.02;;
71600;SDS011;59446;52.192;4.628;2022-09-30T15:08:11;64.30;;;22.53;;
71600;SDS011;59446;52.192;4.628;2022-09-30T15:10:51;68.15;;;25.27;;
71600;SDS011;59446;52.192;4.628;2022-09-30T15:13:20;76.20;;;24.15;;
71600;SDS011;59446;52.192;4.628;2022-09-30T15:15:47;61.03;;;21.53;;
71600;SDS011;59446;52.192;4.628;2022-09-30T15:20:56;54.77;;;19.20;;
71600;SDS011;59446;52.192;4.628;2022-09-30T15:23:25;54.17;;;18.95;;
71600;SDS011;59446;52.192;4.628;2022-09-30T15:25:54;56.95;;;17.83;;
71600;SDS011;59446;52.192;4.628;2022-09-30T15:28:21;48.97;;;16.83;;
71600;SDS011;59446;52.192;4.628;2022-09-30T15:30:47;46.38;;;15.13;;
71600;SDS011;59446;52.192;4.628;2022-09-30T15:33:18;41.35;;;15.02;;
71600;SDS011;59446;52.192;4.628;2022-09-30T15:35:48;39.65;;;15.77;;
71600;SDS011;59446;52.192;4.628;2022-09-30T15:38:15;47.97;;;15.37;;
71600;SDS011;59446;52.192;4.628;2022-09-30T15:40:45;42.15;;;15.20;;
71600;SDS011;59446;52.192;4.628;2022-09-30T15:43:14;38.03;;;13.63;;
71600;SDS011;59446;52.192;4.628;2022-09-30T15:45:55;42.37;;;13.57;;
71600;SDS011;59446;52.192;4.628;2022-09-30T15:50:52;37.78;;;12.57;;
71600;SDS011;59446;52.192;4.628;2022-09-30T15:59:00;32.03;;;9.75;;
71600;SDS011;59446;52.192;4.628;2022-09-30T16:01:31;33.58;;;11.20;;
71600;SDS011;59446;52.192;4.628;2022-09-30T16:09:02;33.20;;;10.27;;
71600;SDS011;59446;52.192;4.628;2022-09-30T16:14:02;32.00;;;9.73;;
71600;SDS011;59446;52.192;4.628;2022-09-30T16:16:30;37.33;;;10.65;;
71600;SDS011;59446;52.192;4.628;2022-09-30T16:18:57;26.67;;;9.48;;
71600;SDS011;59446;52.192;4.628;2022-09-30T16:23:53;27.67;;;9.33;;
71600;SDS011;59446;52.192;4.628;2022-09-30T16:26:20;26.10;;;9.90;;
71600;SDS011;59446;52.192;4.628;2022-09-30T16:28:52;27.52;;;8.85;;
71600;SDS011;59446;52.192;4.628;2022-09-30T16:31:19;24.85;;;8.23;;
71600;SDS011;59446;52.192;4.628;2022-09-30T16:33:46;22.38;;;7.32;;
71600;SDS011;59446;52.192;4.628;2022-09-30T16:36:12;25.80;;;7.60;;
71600;SDS011;59446;52.192;4.628;2022-09-30T16:38:38;22.60;;;8.55;;
71600;SDS011;59446;52.192;4.628;2022-09-30T16:41:04;25.73;;;8.10;;
71600;SDS011;59446;52.192;4.628;2022-09-30T16:43:30;23.50;;;6.67;;
71600;SDS011;59446;52.192;4.628;2022-09-30T16:45:56;25.43;;;7.30;;
71600;SDS011;59446;52.192;4.628;2022-09-30T16:48:24;24.15;;;7.47;;
71600;SDS011;59446;52.192;4.628;2022-09-30T16:51:32;21.77;;;7.07;;
71600;SDS011;59446;52.192;4.628;2022-09-30T16:53:41;18.07;;;6.30;;
71600;SDS011;59446;52.192;4.628;2022-09-30T16:56:15;21.48;;;6.80;;
71600;SDS011;59446;52.192;4.628;2022-09-30T16:58:43;22.10;;;7.35;;
71600;SDS011;59446;52.192;4.628;2022-09-30T17:01:20;18.00;;;5.80;;
71600;SDS011;59446;52.192;4.628;2022-09-30T17:03:47;21.88;;;6.72;;
71600;SDS011;59446;52.192;4.628;2022-09-30T17:06:13;17.42;;;6.82;;
71600;SDS011;59446;52.192;4.628;2022-09-30T17:08:44;25.50;;;6.20;;
71600;SDS011;59446;52.192;4.628;2022-09-30T17:11:12;16.75;;;5.68;;
71600;SDS011;59446;52.192;4.628;2022-09-30T17:13:39;16.50;;;5.60;;
71600;SDS011;59446;52.192;4.628;2022-09-30T17:16:05;17.30;;;6.07;;
71600;SDS011;59446;52.192;4.628;2022-09-30T17:18:30;22.85;;;6.35;;
71600;SDS011;59446;52.192;4.628;2022-09-30T17:20:56;23.37;;;5.97;;
71600;SDS011;59446;52.192;4.628;2022-09-30T17:23:23;16.95;;;6.22;;
71600;SDS011;59446;52.192;4.628;2022-09-30T17:25:49;19.65;;;5.95;;
71600;SDS011;59446;52.192;4.628;2022-09-30T17:28:15;13.80;;;5.10;;
71600;SDS011;59446;52.192;4.628;2022-09-30T17:30:45;15.63;;;5.68;;
71600;SDS011;59446;52.192;4.628;2022-09-30T17:33:12;17.38;;;6.65;;
71600;SDS011;59446;52.192;4.628;2022-09-30T17:35:38;16.13;;;5.90;;
71600;SDS011;59446;52.192;4.628;2022-09-30T17:38:05;16.52;;;5.72;;
71600;SDS011;59446;52.192;4.628;2022-09-30T17:40:34;13.43;;;5.35;;
71600;SDS011;59446;52.192;4.628;2022-09-30T17:43:18;19.40;;;5.23;;
71600;SDS011;59446;52.192;4.628;2022-09-30T17:45:44;16.40;;;5.38;;
71600;SDS011;59446;52.192;4.628;2022-09-30T17:48:10;14.73;;;5.80;;
71600;SDS011;59446;52.192;4.628;2022-09-30T17:50:38;14.82;;;5.82;;
71600;SDS011;59446;52.192;4.628;2022-09-30T17:53:06;16.15;;;5.10;;
71600;SDS011;59446;52.192;4.628;2022-09-30T17:55:32;14.27;;;4.70;;
71600;SDS011;59446;52.192;4.628;2022-09-30T17:57:59;12.35;;;4.80;;
71600;SDS011;59446;52.192;4.628;2022-09-30T18:00:27;14.40;;;5.38;;
71600;SDS011;59446;52.192;4.628;2022-09-30T18:02:53;17.55;;;5.18;;
71600;SDS011;59446;52.192;4.628;2022-09-30T18:05:19;13.30;;;4.47;;
71600;SDS011;59446;52.192;4.628;2022-09-30T18:07:45;12.30;;;4.40;;
71600;SDS011;59446;52.192;4.628;2022-09-30T18:10:11;14.17;;;4.93;;